Time;durP1;ratioP1;P1;durP2;ratioP2;P2;SDS_P1;SDS_P2;PMS_P1;PMS_P2;Temp;Humidity;BMP_temperature;BMP_pressure;BME280_temperature;BME280_humidity;BME280_pressure;Samples;Min_cycle;Max_cycle;Signal;HPM_P1;HPM_P2
2022/09/06 00:00:11;;;;;;;2.87;1.80;;;;;;;12.09;57.90;100913.11;1621392;87;21143;-68
2022/09/06 00:02:41;;;;;;;3.58;1.82;;;;;;;12.06;57.94;100913.33;1623677;86;21968;-68
2022/09/06 00:05:08;;;;;;;3.55;1.60;;;;;;;12.02;57.62;100918.50;1623802;86;21057;-69
2022/09/06 00:07:35;;;;;;;2.58;1.82;;;;;;;11.99;57.39;100914.30;1609355;86;21033;-68
2022/09/06 00:10:02;;;;;;;3.37;1.80;;;;;;;12.01;57.35;100920.80;1623133;87;21041;-69
2022/09/06 00:12:29;;;;;;;3.40;1.87;;;;;;;11.99;57.40;100915.63;1628735;86;21523;-68
2022/09/06 00:14:56;;;;;;;2.98;2.02;;;;;;;11.96;57.52;100921.13;1623024;86;22527;-69
2022/09/06 00:17:23;;;;;;;3.33;2.00;;;;;;;11.92;57.51;100915.72;1631602;86;22131;-68
2022/09/06 00:19:50;;;;;;;4.25;1.85;;;;;;;11.91;57.55;100911.87;1625642;86;21060;-68
2022/09/06 00:22:17;;;;;;;3.87;1.72;;;;;;;11.88;57.59;100916.93;1627030;86;22045;-68
2022/09/06 00:24:44;;;;;;;4.55;1.80;;;;;;;11.86;57.71;100913.53;1623560;86;21069;-69
2022/09/06 00:27:11;;;;;;;3.80;1.67;;;;;;;11.83;57.82;100913.77;1623840;88;21853;-69
2022/09/06 00:29:38;;;;;;;3.98;1.95;;;;;;;11.78;58.02;100913.27;1623407;86;21073;-69
2022/09/06 00:32:07;;;;;;;5.65;2.10;;;;;;;11.71;58.19;100915.52;1620987;86;21089;-69
2022/09/06 00:34:33;;;;;;;3.20;1.85;;;;;;;11.64;58.37;100919.58;1612694;86;21104;-69
2022/09/06 00:37:00;;;;;;;2.60;1.75;;;;;;;11.57;58.56;100925.44;1650587;85;21487;-69
2022/09/06 00:39:27;;;;;;;3.02;1.77;;;;;;;11.47;58.82;100918.19;1580075;89;21865;-69
2022/09/06 00:41:55;;;;;;;2.72;1.95;;;;;;;11.43;59.01;100923.83;1577452;88;21095;-70
2022/09/06 00:44:22;;;;;;;3.02;1.75;;;;;;;11.36;59.18;100923.43;1617217;87;21535;-69
2022/09/06 00:46:49;;;;;;;3.12;1.70;;;;;;;11.31;59.34;100916.81;1630667;88;21042;-68
2022/09/06 00:49:25;;;;;;;2.92;1.92;;;;;;;11.25;59.50;100913.29;1630213;86;21068;-69
2022/09/06 00:51:57;;;;;;;2.87;1.75;;;;;;;11.20;59.62;100904.87;1630458;85;22630;-70
2022/09/06 00:54:23;;;;;;;3.70;2.00;;;;;;;11.11;59.78;100904.58;1629376;86;21409;-69
2022/09/06 00:56:50;;;;;;;2.92;1.80;;;;;;;11.04;59.96;100913.91;1624643;86;21108;-69
2022/09/06 00:59:17;;;;;;;5.47;1.85;;;;;;;10.96;60.11;100914.94;1629622;86;21069;-68
2022/09/06 01:01:44;;;;;;;3.20;1.72;;;;;;;10.85;60.38;100910.42;1611902;87;21100;-69
2022/09/06 01:04:11;;;;;;;2.77;1.80;;;;;;;10.79;60.60;100913.50;1646164;86;22096;-68
2022/09/06 01:06:51;;;;;;;3.17;1.90;;;;;;;10.73;60.78;100913.95;1598222;88;21088;-68
2022/09/06 01:10:01;;;;;;;2.65;1.72;;;;;;;10.66;61.03;100912.70;1579461;90;21097;-66
2022/09/06 01:13:08;;;;;;;3.33;2.02;;;;;;;10.59;61.23;100914.08;1592920;88;21508;-68
2022/09/06 01:15:56;;;;;;;5.87;1.85;;;;;;;10.50;61.49;100908.96;1610279;89;20968;-67
2022/09/06 01:18:55;;;;;;;2.77;1.80;;;;;;;10.43;61.76;100911.69;1594064;88;21985;-67
2022/09/06 01:21:37;;;;;;;3.35;1.80;;;;;;;10.37;61.91;100912.11;1598653;87;21041;-67
2022/09/06 01:24:34;;;;;;;4.22;1.90;;;;;;;10.26;62.04;100914.18;1589256;87;33566;-67
2022/09/06 01:27:36;;;;;;;3.50;1.87;;;;;;;10.20;62.34;100909.76;1633420;87;21056;-67
2022/09/06 01:30:08;;;;;;;4.15;1.90;;;;;;;10.15;62.52;100915.37;1602993;87;21537;-67
2022/09/06 01:32:55;;;;;;;2.70;1.70;;;;;;;10.09;62.70;100917.10;1625955;86;22629;-67
2022/09/06 01:35:34;;;;;;;4.08;2.30;;;;;;;10.04;62.87;100919.23;1626488;86;21053;-68
2022/09/06 01:38:01;;;;;;;3.90;1.90;;;;;;;9.99;63.05;100920.00;1635409;86;21455;-67
2022/09/06 01:40:28;;;;;;;4.00;2.10;;;;;;;9.94;63.24;100923.41;1630158;87;21047;-67
2022/09/06 01:42:56;;;;;;;3.60;1.90;;;;;;;9.91;63.30;100928.43;1633474;86;21068;-68
2022/09/06 01:45:30;;;;;;;3.55;1.90;;;;;;;9.88;63.48;100929.97;1634217;87;21973;-67
2022/09/06 01:48:17;;;;;;;4.40;2.20;;;;;;;9.84;63.60;100930.27;1632915;87;20976;-67
2022/09/06 01:51:05;;;;;;;3.80;2.30;;;;;;;9.77;63.69;100930.33;1616706;87;21435;-67
2022/09/06 01:54:00;;;;;;;3.35;1.95;;;;;;;9.70;63.82;100938.64;1649983;85;21176;-67
2022/09/06 01:56:44;;;;;;;3.42;2.20;;;;;;;9.60;63.95;100941.52;1588899;90;22667;-67
2022/09/06 01:59:43;;;;;;;3.52;2.08;;;;;;;9.54;64.15;100939.75;1611856;88;21832;-67
2022/09/06 02:02:21;;;;;;;3.00;2.08;;;;;;;9.49;64.33;100940.07;1608269;86;21062;-67
2022/09/06 02:04:54;;;;;;;2.87;2.08;;;;;;;9.42;64.49;100942.25;1619681;86;21145;-67
2022/09/06 02:07:26;;;;;;;4.73;1.93;;;;;;;9.37;64.61;100943.52;1616944;86;21041;-68
2022/09/06 02:10:01;;;;;;;4.78;2.10;;;;;;;9.30;64.75;100943.06;1632646;86;21704;-68
2022/09/06 02:12:27;;;;;;;4.28;2.33;;;;;;;9.25;64.91;100948.25;1637986;86;22945;-67
2022/09/06 02:14:59;;;;;;;3.55;2.20;;;;;;;9.20;64.99;100954.30;1647134;86;21513;-67
2022/09/06 02:17:29;;;;;;;4.67;2.00;;;;;;;9.16;65.11;100947.05;1628253;87;21016;-67
2022/09/06 02:20:15;;;;;;;4.03;2.17;;;;;;;9.13;65.16;100952.05;1585527;89;21086;-67
2022/09/06 02:22:45;;;;;;;3.75;2.27;;;;;;;9.10;65.30;100953.58;1597135;88;21049;-67
2022/09/06 02:25:18;;;;;;;3.98;2.42;;;;;;;9.06;65.32;100954.70;1625420;87;22536;-67
2022/09/06 02:27:45;;;;;;;5.12;2.85;;;;;;;9.04;65.40;100949.16;1599519;86;21040;-66
2022/09/06 02:30:13;;;;;;;3.20;1.90;;;;;;;9.01;65.43;100944.09;1589207;89;21037;-67
2022/09/06 02:32:45;;;;;;;4.37;2.15;;;;;;;8.98;65.52;100945.14;1573323;91;21527;-67
2022/09/06 02:35:14;;;;;;;3.37;2.00;;;;;;;8.93;65.57;100942.41;1584836;89;20986;-69
2022/09/06 02:37:42;;;;;;;5.25;2.60;;;;;;;8.88;65.65;100942.25;1607427;88;21887;-67
2022/09/06 02:40:10;;;;;;;4.28;2.52;;;;;;;8.84;65.70;100949.95;1594073;88;21112;-68
2022/09/06 02:42:39;;;;;;;5.03;2.60;;;;;;;8.81;65.76;100946.67;1616818;88;21162;-67
2022/09/06 02:45:07;;;;;;;5.10;2.45;;;;;;;8.78;65.92;100949.48;1607395;88;21025;-68
2022/09/06 02:47:34;;;;;;;3.90;2.17;;;;;;;8.76;65.95;100949.58;1601310;88;20997;-68
2022/09/06 02:50:01;;;;;;;4.40;2.08;;;;;;;8.70;65.97;100942.55;1594662;88;21892;-68
2022/09/06 02:52:29;;;;;;;5.35;2.52;;;;;;;8.63;65.91;100945.19;1583965;88;21038;-68
2022/09/06 02:54:55;;;;;;;3.75;2.40;;;;;;;8.55;65.95;100953.08;1597239;88;22320;-68
2022/09/06 02:57:22;;;;;;;3.55;2.37;;;;;;;8.51;66.06;100960.81;1590713;88;21053;-67
2022/09/06 02:59:49;;;;;;;5.40;2.37;;;;;;;8.47;66.09;100955.33;1594212;88;21068;-69
2022/09/06 03:02:16;;;;;;;3.35;2.22;;;;;;;8.43;66.18;100955.63;1585519;88;21981;-68
2022/09/06 03:04:43;;;;;;;5.55;2.70;;;;;;;8.38;66.28;100962.48;1596170;89;21013;-67
2022/09/06 03:07:09;;;;;;;5.12;2.83;;;;;;;8.36;66.44;100959.57;1592595;88;21021;-67
2022/09/06 03:09:36;;;;;;;5.58;2.50;;;;;;;8.34;66.71;100964.90;1581373;88;21555;-68
2022/09/06 03:12:03;;;;;;;5.25;2.72;;;;;;;8.31;66.78;100966.41;1596583;88;21127;-67
2022/09/06 03:14:30;;;;;;;4.60;2.80;;;;;;;8.30;66.99;100966.88;1572991;89;22482;-68
2022/09/06 03:16:57;;;;;;;7.62;2.95;;;;;;;8.33;67.25;100969.79;1591648;88;21101;-67
2022/09/06 03:19:23;;;;;;;3.95;2.67;;;;;;;8.32;67.31;100974.68;1601193;88;21519;-67
2022/09/06 03:21:51;;;;;;;3.72;2.70;;;;;;;8.32;67.41;100978.16;1598319;88;21085;-68
2022/09/06 03:24:18;;;;;;;5.83;2.80;;;;;;;8.31;67.44;100980.88;1531292;92;21116;-68
2022/09/06 03:26:45;;;;;;;9.35;3.05;;;;;;;8.29;67.44;100982.73;1560061;89;22504;-67
2022/09/06 03:29:12;;;;;;;6.15;2.67;;;;;;;8.30;67.52;100984.46;1591530;90;20991;-67
2022/09/06 03:31:39;;;;;;;7.03;2.67;;;;;;;8.32;67.61;100984.73;1631661;86;21101;-67
2022/09/06 03:34:06;;;;;;;5.50;2.60;;;;;;;8.32;67.73;100990.47;1639863;87;20990;-67
2022/09/06 03:36:33;;;;;;;6.85;3.08;;;;;;;8.35;67.79;100990.78;1641933;87;21168;-67
2022/09/06 03:39:00;;;;;;;4.00;2.62;;;;;;;8.36;67.85;101001.21;1626474;86;22652;-68
2022/09/06 03:41:27;;;;;;;4.90;2.80;;;;;;;8.36;67.88;101004.31;1631647;86;21045;-68
2022/09/06 03:43:54;;;;;;;5.50;4.40;;;;;;;8.36;67.92;101006.95;1634544;86;21038;-67
2022/09/06 03:46:21;;;;;;;6.75;4.03;;;;;;;8.35;68.03;101004.78;1626082;86;21604;-67
2022/09/06 03:48:48;;;;;;;10.75;7.53;;;;;;;8.35;68.17;101012.68;1624009;86;21001;-68
2022/09/06 03:51:15;;;;;;;7.37;3.72;;;;;;;8.36;68.34;101011.73;1624093;86;21888;-68
2022/09/06 03:53:42;;;;;;;5.40;3.30;;;;;;;8.38;68.53;101009.86;1622611;86;20867;-67
2022/09/06 03:56:09;;;;;;;6.12;2.87;;;;;;;8.43;68.60;101017.02;1619432;86;21072;-67
2022/09/06 03:58:36;;;;;;;5.40;2.87;;;;;;;8.47;68.61;101011.94;1623166;88;21172;-68
2022/09/06 04:01:07;;;;;;;4.35;2.47;;;;;;;8.52;68.64;101013.83;1622765;88;20994;-70
2022/09/06 04:03:34;;;;;;;5.20;2.90;;;;;;;8.56;68.69;101015.80;1610633;87;21847;-66
2022/09/06 04:06:01;;;;;;;5.47;2.75;;;;;;;8.61;68.78;101012.44;1635946;85;21129;-68
2022/09/06 04:08:27;;;;;;;6.87;3.92;;;;;;;8.66;68.82;101013.45;1625435;86;21077;-67
2022/09/06 04:10:55;;;;;;;4.55;3.15;;;;;;;8.70;68.79;101011.88;1635117;86;21081;-66
2022/09/06 04:13:25;;;;;;;4.95;3.42;;;;;;;8.75;68.78;101011.57;1619348;86;20989;-67
2022/09/06 04:15:52;;;;;;;7.00;3.90;;;;;;;8.81;68.75;101019.11;1611357;87;22007;-67
2022/09/06 04:18:19;;;;;;;5.72;3.08;;;;;;;8.84;68.72;101016.28;1603074;88;21065;-67
2022/09/06 04:20:50;;;;;;;5.40;2.62;;;;;;;8.88;68.71;101019.11;1619975;87;21026;-67
2022/09/06 04:23:17;;;;;;;4.05;2.50;;;;;;;8.93;68.69;101020.13;1584655;90;21018;-67
2022/09/06 04:25:50;;;;;;;4.50;2.22;;;;;;;8.97;68.67;101020.30;1599260;88;21045;-67
2022/09/06 04:28:17;;;;;;;5.15;2.35;;;;;;;9.02;68.68;101016.92;1592638;87;22585;-68
2022/09/06 04:30:47;;;;;;;6.20;2.25;;;;;;;9.09;68.66;101017.77;1587303;89;21065;-68
2022/09/06 04:33:14;;;;;;;4.10;2.45;;;;;;;9.17;68.53;101023.41;1591642;88;21026;-68
2022/09/06 04:35:41;;;;;;;5.90;1.90;;;;;;;9.24;68.42;101025.16;1569499;90;21097;-68
2022/09/06 04:38:07;;;;;;;5.17;2.08;;;;;;;9.30;68.26;101023.94;1592731;88;21551;-66
2022/09/06 04:40:35;;;;;;;2.70;1.90;;;;;;;9.35;68.16;101027.11;1585579;89;21871;-68
2022/09/06 04:43:01;;;;;;;7.80;2.10;;;;;;;9.42;68.03;101028.42;1588968;88;21032;-66
2022/09/06 04:45:28;;;;;;;6.75;2.08;;;;;;;9.49;67.91;101028.41;1557861;91;21046;-67
2022/09/06 04:47:55;;;;;;;4.65;2.20;;;;;;;9.56;67.79;101028.87;1586828;89;21052;-67
2022/09/06 04:50:22;;;;;;;3.15;1.60;;;;;;;9.62;67.68;101032.41;1600917;88;21543;-67
2022/09/06 04:52:50;;;;;;;4.40;1.85;;;;;;;9.68;67.56;101020.99;1587920;89;21861;-68
2022/09/06 04:55:16;;;;;;;4.20;1.95;;;;;;;9.71;67.40;101035.29;1590566;88;21064;-67
2022/09/06 04:57:43;;;;;;;3.87;2.95;;;;;;;9.75;67.24;101027.56;1591994;87;21029;-68
2022/09/06 05:00:12;;;;;;;4.20;1.92;;;;;;;9.80;67.13;101031.68;1586465;88;21115;-67
2022/09/06 05:02:38;;;;;;;4.00;2.17;;;;;;;9.85;66.96;101030.92;1585531;89;21144;-67
2022/09/06 05:05:07;;;;;;;4.17;1.90;;;;;;;9.91;66.77;101033.14;1600402;88;22509;-69
2022/09/06 05:07:34;;;;;;;3.92;1.95;;;;;;;9.96;66.57;101035.02;1587199;89;21001;-70
2022/09/06 05:10:01;;;;;;;3.10;1.80;;;;;;;10.03;66.43;101040.23;1595178;88;21069;-70
2022/09/06 05:12:28;;;;;;;3.92;1.77;;;;;;;10.11;66.29;101048.48;1578512;89;21555;-70
2022/09/06 05:14:55;;;;;;;4.20;1.85;;;;;;;10.15;65.93;101051.79;1585040;88;21505;-71
2022/09/06 05:17:22;;;;;;;4.75;1.72;;;;;;;10.16;65.65;101048.20;1581532;89;21875;-69
2022/09/06 05:19:49;;;;;;;3.22;1.72;;;;;;;10.21;65.47;101050.88;1591423;89;20984;-70
2022/09/06 05:22:16;;;;;;;2.55;1.65;;;;;;;10.26;65.04;101059.87;1581008;90;21080;-69
2022/09/06 05:24:42;;;;;;;3.60;1.67;;;;;;;10.28;64.86;101059.28;1584283;89;21013;-74
2022/09/06 05:27:11;;;;;;;4.05;1.80;;;;;;;10.33;64.65;101063.80;1598136;88;21228;-68
2022/09/06 05:29:39;;;;;;;4.78;1.40;;;;;;;10.38;64.44;101064.79;1580615;89;22474;-68
2022/09/06 05:32:05;;;;;;;3.00;1.80;;;;;;;10.43;64.21;101057.42;1597583;89;21077;-67
2022/09/06 05:34:33;;;;;;;2.10;1.30;;;;;;;10.43;63.82;101056.94;1569007;90;21528;-66
2022/09/06 05:37:01;;;;;;;3.00;1.75;;;;;;;10.47;63.56;101055.77;1598610;88;21439;-68
2022/09/06 05:39:29;;;;;;;3.12;1.60;;;;;;;10.53;63.44;101062.44;1584605;89;21140;-67
2022/09/06 05:41:57;;;;;;;3.85;1.70;;;;;;;10.54;63.20;101062.33;1594870;89;21967;-68
2022/09/06 05:44:24;;;;;;;1.92;1.35;;;;;;;10.59;63.00;101061.53;1589542;89;21524;-68
2022/09/06 05:46:52;;;;;;;4.65;1.40;;;;;;;10.61;62.53;101062.73;1589307;88;21032;-68
2022/09/06 05:49:20;;;;;;;2.83;1.40;;;;;;;10.61;62.28;101062.73;1584602;89;21072;-68
2022/09/06 05:51:50;;;;;;;2.52;1.37;;;;;;;10.66;62.11;101059.80;1597877;88;20977;-68
2022/09/06 05:54:17;;;;;;;2.62;1.50;;;;;;;10.73;61.70;101063.23;1594977;87;21881;-68
2022/09/06 05:56:44;;;;;;;3.40;1.20;;;;;;;10.78;61.58;101062.91;1596840;88;20883;-68
2022/09/06 05:59:12;;;;;;;1.47;1.15;;;;;;;10.87;61.53;101056.98;1609172;88;21012;-68
2022/09/06 06:01:49;;;;;;;2.27;1.20;;;;;;;10.97;61.39;101061.99;1575092;89;21129;-68
2022/09/06 06:04:17;;;;;;;3.08;1.50;;;;;;;11.05;60.95;101064.10;1592683;88;20988;-69
2022/09/06 06:06:48;;;;;;;4.92;1.50;;;;;;;11.09;60.85;101065.09;1599282;88;21852;-68
2022/09/06 06:09:15;;;;;;;2.00;1.47;;;;;;;11.16;60.90;101061.06;1596730;87;21072;-68
2022/09/06 06:11:42;;;;;;;1.92;1.30;;;;;;;11.27;60.75;101066.06;1600585;88;21013;-69
2022/09/06 06:14:09;;;;;;;2.20;1.27;;;;;;;11.35;60.67;101063.72;1583791;89;21061;-69
2022/09/06 06:16:36;;;;;;;2.10;1.35;;;;;;;11.38;60.25;101059.53;1599110;88;21473;-68
2022/09/06 06:19:03;;;;;;;3.30;1.32;;;;;;;11.44;60.14;101061.27;1582039;88;21925;-69
2022/09/06 06:21:50;;;;;;;1.70;1.10;;;;;;;11.51;59.56;101065.64;1638599;86;21045;-70
2022/09/06 06:24:17;;;;;;;1.27;1.10;;;;;;;11.53;59.19;101066.84;1615576;87;21504;-70
2022/09/06 06:26:44;;;;;;;2.05;1.20;;;;;;;11.56;58.67;101065.30;1661063;85;21031;-69
2022/09/06 06:29:13;;;;;;;1.55;1.10;;;;;;;11.59;58.72;101068.58;1660193;85;21077;-69
2022/09/06 06:31:41;;;;;;;3.58;1.27;;;;;;;11.66;58.70;101068.48;1657749;85;21204;-70
2022/09/06 06:34:08;;;;;;;2.52;1.10;;;;;;;11.71;58.28;101070.33;1661102;85;21074;-68
2022/09/06 06:36:36;;;;;;;3.47;1.20;;;;;;;11.76;58.13;101073.47;1662669;85;20983;-70
2022/09/06 06:39:05;;;;;;;2.35;1.00;;;;;;;11.80;58.22;101070.65;1646906;85;21078;-71
2022/09/06 06:41:32;;;;;;;2.20;1.27;;;;;;;11.84;58.03;101072.10;1659620;85;21039;-71
2022/09/06 06:44:03;;;;;;;2.67;1.45;;;;;;;11.91;57.92;101069.38;1656703;85;22548;-71
2022/09/06 06:46:34;;;;;;;3.67;1.20;;;;;;;12.01;58.13;101068.58;1661722;85;21107;-72
2022/09/06 06:49:02;;;;;;;2.55;1.30;;;;;;;12.15;58.06;101062.23;1661337;86;21019;-71
2022/09/06 06:51:31;;;;;;;4.60;1.20;;;;;;;12.27;57.33;101068.44;1661209;85;21414;-69
2022/09/06 06:53:58;;;;;;;2.17;1.20;;;;;;;12.32;57.06;101063.63;1662356;85;21016;-69
2022/09/06 06:56:34;;;;;;;2.70;0.93;;;;;;;12.45;56.90;101064.84;1659582;85;21842;-70
2022/09/06 06:59:03;;;;;;;2.42;0.90;;;;;;;12.54;56.32;101065.47;1659035;85;21106;-71
2022/09/06 07:01:31;;;;;;;2.98;0.90;;;;;;;12.60;55.49;101067.19;1659446;85;21498;-70
2022/09/06 07:03:58;;;;;;;3.50;0.90;;;;;;;12.69;54.55;101068.77;1659006;85;20996;-72
2022/09/06 07:06:26;;;;;;;5.70;1.55;;;;;;;12.72;53.94;101070.69;1658557;85;21007;-71
2022/09/06 07:08:56;;;;;;;1.52;0.80;;;;;;;12.76;53.02;101072.16;1659472;85;22474;-70
2022/09/06 07:11:23;;;;;;;3.30;0.90;;;;;;;12.75;52.40;101071.80;1658841;86;21024;-69
2022/09/06 07:13:49;;;;;;;2.42;0.70;;;;;;;12.72;52.31;101072.02;1658281;86;20995;-69
2022/09/06 07:16:23;;;;;;;1.98;0.70;;;;;;;12.75;51.75;101069.14;1656185;85;21051;-70
2022/09/06 07:18:51;;;;;;;1.50;0.60;;;;;;;12.89;51.88;101073.36;1646584;86;21391;-70
2022/09/06 07:21:20;;;;;;;2.12;0.50;;;;;;;13.09;51.37;101067.82;1661037;86;21809;-70
2022/09/06 07:23:47;;;;;;;1.22;0.40;;;;;;;13.15;50.64;101077.48;1663544;84;20988;-71
2022/09/06 07:26:17;;;;;;;2.17;0.60;;;;;;;13.20;50.47;101069.17;1662388;85;21538;-70
2022/09/06 07:28:45;;;;;;;1.72;0.68;;;;;;;13.25;49.89;101076.78;1664553;86;20968;-69
2022/09/06 07:31:12;;;;;;;0.75;0.50;;;;;;;13.29;50.07;101077.73;1665484;84;20992;-68
2022/09/06 07:33:39;;;;;;;1.05;0.60;;;;;;;13.41;50.08;101071.47;1665253;86;21962;-69
2022/09/06 07:36:07;;;;;;;1.55;0.50;;;;;;;13.57;49.39;101069.73;1662538;86;21083;-68
2022/09/06 07:38:35;;;;;;;1.25;0.70;;;;;;;13.72;49.72;101065.84;1663411;86;21031;-70
2022/09/06 07:41:04;;;;;;;1.75;0.70;;;;;;;13.94;49.38;101075.53;1665226;84;20960;-74
2022/09/06 07:43:32;;;;;;;1.80;0.70;;;;;;;14.04;48.57;101061.02;1663675;85;20968;-72
2022/09/06 07:46:15;;;;;;;1.22;0.60;;;;;;;14.06;48.77;101061.72;1664871;86;21777;-72
2022/09/06 07:48:43;;;;;;;1.45;0.70;;;;;;;14.11;48.31;101066.67;1650102;85;21046;-72
2022/09/06 07:51:15;;;;;;;2.33;0.70;;;;;;;14.07;48.07;101064.73;1664219;86;21079;-73
2022/09/06 07:53:46;;;;;;;0.87;0.60;;;;;;;14.01;48.14;101069.24;1665722;84;20968;-73
2022/09/06 07:56:13;;;;;;;1.20;0.78;;;;;;;13.95;48.19;101069.73;1665691;84;20988;-71
2022/09/06 07:58:40;;;;;;;1.10;0.50;;;;;;;14.06;48.24;101065.70;1665426;84;21870;-73
2022/09/06 08:01:21;;;;;;;0.60;0.50;;;;;;;14.30;48.50;101070.80;1664974;84;20971;-72
2022/09/06 08:03:48;;;;;;;1.32;0.82;;;;;;;14.44;46.60;101070.95;1665377;85;21463;-73
2022/09/06 08:06:16;;;;;;;1.00;0.40;;;;;;;14.39;46.57;101069.19;1662010;86;20999;-73
2022/09/06 08:08:42;;;;;;;1.10;0.47;;;;;;;14.46;46.54;101073.02;1662106;84;21047;-72
2022/09/06 08:11:09;;;;;;;1.10;0.50;;;;;;;14.54;46.21;101074.06;1664779;84;22460;-68
2022/09/06 08:13:36;;;;;;;1.70;0.60;;;;;;;14.55;45.79;101066.92;1659695;86;20984;-69
2022/09/06 08:16:05;;;;;;;2.20;0.62;;;;;;;14.57;45.85;101067.17;1662317;85;21058;-70
2022/09/06 08:18:34;;;;;;;0.85;0.57;;;;;;;14.60;44.59;101064.73;1666045;84;20977;-70
2022/09/06 08:21:11;;;;;;;1.00;0.57;;;;;;;14.59;44.29;101061.72;1665178;84;21131;-70
2022/09/06 08:23:41;;;;;;;1.25;0.60;;;;;;;14.54;44.62;101059.92;1662581;84;21823;-70
2022/09/06 08:26:08;;;;;;;1.52;0.42;;;;;;;14.51;44.10;101051.73;1667088;84;21439;-70
2022/09/06 08:28:34;;;;;;;0.95;0.53;;;;;;;14.47;44.14;101053.44;1663912;84;20972;-70
2022/09/06 08:31:06;;;;;;;0.40;0.33;;;;;;;14.57;44.33;101055.67;1664719;85;20958;-69
2022/09/06 08:33:34;;;;;;;1.20;0.42;;;;;;;14.69;43.93;101044.00;1661695;84;21043;-70
2022/09/06 08:36:00;;;;;;;1.22;0.40;;;;;;;14.75;43.52;101054.09;1666084;85;21805;-69
2022/09/06 08:38:27;;;;;;;1.12;0.62;;;;;;;14.75;43.30;101042.12;1666568;86;21345;-72
2022/09/06 08:40:56;;;;;;;0.70;0.45;;;;;;;14.79;43.36;101042.73;1665480;86;21496;-70
2022/09/06 08:43:25;;;;;;;3.15;0.50;;;;;;;14.81;43.00;101038.11;1664094;85;21971;-69
2022/09/06 08:45:55;;;;;;;1.75;0.70;;;;;;;14.79;43.16;101038.73;1665886;85;20964;-70
2022/09/06 08:48:23;;;;;;;0.60;0.60;;;;;;;14.76;43.40;101042.48;1665745;86;21943;-69
2022/09/06 08:51:15;;;;;;;0.85;0.50;;;;;;;14.78;43.24;101038.39;1667085;85;21064;-69
2022/09/06 08:53:45;;;;;;;1.35;0.65;;;;;;;14.79;43.12;101040.91;1672089;85;21053;-69
2022/09/06 08:56:16;;;;;;;1.20;0.60;;;;;;;14.88;44.05;101036.61;1666680;86;21000;-69
2022/09/06 08:59:05;;;;;;;1.35;0.60;;;;;;;15.06;43.84;101037.67;1666685;86;20984;-69
2022/09/06 09:01:40;;;;;;;0.93;0.62;;;;;;;15.15;42.69;101037.32;1639689;87;21977;-67
2022/09/06 09:04:06;;;;;;;1.70;0.60;;;;;;;15.00;42.77;101034.69;1638537;86;20984;-68
2022/09/06 09:06:33;;;;;;;1.32;0.50;;;;;;;14.83;43.03;101034.34;1637295;86;21005;-68
2022/09/06 09:09:06;;;;;;;0.88;0.60;;;;;;;14.68;43.02;101042.33;1655946;85;21035;-69
2022/09/06 09:11:34;;;;;;;1.95;0.60;;;;;;;14.57;43.38;101041.05;1666969;84;20992;-69
2022/09/06 09:14:26;;;;;;;1.02;0.60;;;;;;;14.52;43.75;101037.95;1666141;86;21871;-69
2022/09/06 09:16:55;;;;;;;1.87;0.60;;;;;;;14.52;44.05;101034.81;1653206;85;20996;-69
2022/09/06 09:19:22;;;;;;;1.27;0.60;;;;;;;14.53;44.18;101032.50;1666492;84;20992;-68
2022/09/06 09:21:48;;;;;;;2.08;0.60;;;;;;;14.60;44.42;101032.83;1658247;84;21356;-69
2022/09/06 09:24:15;;;;;;;1.15;0.68;;;;;;;14.67;44.24;101028.68;1652504;86;20997;-69
2022/09/06 09:26:50;;;;;;;1.20;0.70;;;;;;;14.75;44.45;101028.83;1656495;86;21476;-68
2022/09/06 09:29:17;;;;;;;1.80;0.80;;;;;;;14.80;44.10;101033.77;1652043;85;20981;-68
2022/09/06 09:31:48;;;;;;;1.37;0.60;;;;;;;14.83;43.87;101035.66;1652525;86;21051;-68
2022/09/06 09:34:36;;;;;;;1.80;0.72;;;;;;;14.87;44.06;101034.93;1652667;85;21046;-68
2022/09/06 09:37:13;;;;;;;2.17;0.68;;;;;;;14.89;43.95;101031.16;1652410;86;21153;-73
2022/09/06 09:39:39;;;;;;;1.25;0.80;;;;;;;14.95;43.79;101030.25;1635464;86;22057;-68
2022/09/06 09:42:08;;;;;;;1.98;0.80;;;;;;;14.89;43.37;101027.16;1653596;85;21028;-68
2022/09/06 09:44:43;;;;;;;1.17;0.70;;;;;;;14.93;43.94;101026.39;1655420;86;20942;-68
2022/09/06 09:47:28;;;;;;;1.30;0.70;;;;;;;15.07;44.03;101018.55;1650876;86;21036;-68
2022/09/06 09:49:55;;;;;;;1.52;0.65;;;;;;;15.19;42.98;101022.78;1652771;86;20953;-68
2022/09/06 09:52:29;;;;;;;1.30;0.60;;;;;;;15.30;43.40;101021.83;1650697;85;22497;-68
2022/09/06 09:55:02;;;;;;;1.05;0.60;;;;;;;15.43;43.24;101018.41;1652710;86;20938;-68
2022/09/06 09:57:31;;;;;;;1.37;0.70;;;;;;;15.58;42.97;101016.20;1652652;86;20966;-68
2022/09/06 09:59:59;;;;;;;1.22;0.68;;;;;;;15.64;42.33;101022.36;1656924;85;21056;-71
2022/09/06 10:02:39;;;;;;;1.37;0.60;;;;;;;15.64;42.03;101019.20;1626205;88;20952;-69
2022/09/06 10:05:15;;;;;;;3.25;0.68;;;;;;;15.68;42.05;101021.92;1625751;87;21959;-69
2022/09/06 10:07:52;;;;;;;2.47;0.60;;;;;;;15.74;42.36;101022.72;1625740;88;21012;-68
2022/09/06 10:10:32;;;;;;;3.17;0.78;;;;;;;15.80;42.02;101031.95;1632156;85;21045;-68
2022/09/06 10:13:21;;;;;;;1.12;0.60;;;;;;;15.89;42.32;101027.61;1652628;86;20957;-68
2022/09/06 10:15:50;;;;;;;1.32;0.55;;;;;;;15.98;40.99;101026.27;1652960;86;20948;-70
2022/09/06 10:18:33;;;;;;;1.30;0.70;;;;;;;15.94;41.02;101023.56;1634455;86;21969;-68
2022/09/06 10:21:21;;;;;;;1.17;0.80;;;;;;;15.92;41.05;101031.31;1652004;85;21034;-68
2022/09/06 10:24:21;;;;;;;1.07;0.72;;;;;;;15.77;40.35;101026.91;1652026;86;21009;-68
2022/09/06 10:26:55;;;;;;;2.72;0.78;;;;;;;15.65;40.50;101025.37;1650965;85;21472;-68
2022/09/06 10:29:54;;;;;;;1.67;0.98;;;;;;;15.65;41.01;101021.38;1652433;85;20950;-68
2022/09/06 10:33:03;;;;;;;1.22;0.80;;;;;;;15.68;40.40;101023.26;1652560;85;21954;-68
2022/09/06 10:35:32;;;;;;;4.37;0.78;;;;;;;15.69;40.71;101023.61;1646557;86;21171;-68
2022/09/06 10:38:31;;;;;;;2.42;0.80;;;;;;;15.84;40.49;101014.73;1614280;85;21024;-68
2022/09/06 10:41:35;;;;;;;2.25;0.88;;;;;;;16.03;40.97;101020.05;1609952;89;21004;-69
2022/09/06 10:44:11;;;;;;;4.12;0.70;;;;;;;16.23;39.87;101024.03;1609460;88;21571;-68
2022/09/06 10:46:38;;;;;;;0.88;0.42;;;;;;;16.27;39.43;101017.41;1609880;89;22388;-67
2022/09/06 10:49:07;;;;;;;1.15;0.50;;;;;;;16.16;38.38;101017.08;1609952;87;21442;-68
2022/09/06 10:51:48;;;;;;;0.98;0.60;;;;;;;15.95;38.69;101020.41;1643280;86;21075;-68
2022/09/06 10:54:22;;;;;;;0.70;0.60;;;;;;;15.78;38.81;101011.77;1652550;85;20965;-68
2022/09/06 10:57:02;;;;;;;;;;;;;;;15.61;39.18;101009.30;1655057;85;20953;-67
2022/09/06 10:59:53;;;;;;;1.05;0.50;;;;;;;15.59;39.85;101008.08;1652464;85;22435;-68
2022/09/06 11:02:46;;;;;;;1.55;0.72;;;;;;;15.90;40.34;101009.31;1652415;86;21048;-68
2022/09/06 11:05:23;;;;;;;0.82;0.53;;;;;;;16.43;38.95;100996.84;1646324;86;21052;-68
2022/09/06 11:07:57;;;;;;;2.10;0.50;;;;;;;16.99;38.54;100995.96;1652838;86;21071;-68
2022/09/06 11:10:36;;;;;;;1.57;0.50;;;;;;;17.48;36.85;100989.84;1650491;85;20965;-69
2022/09/06 11:13:18;;;;;;;1.00;0.50;;;;;;;17.88;36.70;100987.57;1652242;85;22016;-69
2022/09/06 11:16:12;;;;;;;0.53;0.40;;;;;;;18.18;35.63;100989.47;1652658;85;21400;-69
2022/09/06 11:18:57;;;;;;;0.57;0.37;;;;;;;18.30;35.46;100986.88;1652621;86;20958;-68
2022/09/06 11:21:49;;;;;;;2.50;0.30;;;;;;;18.34;34.82;100995.44;1654054;86;21189;-68
2022/09/06 11:24:50;;;;;;;0.50;0.40;;;;;;;18.30;35.08;100995.73;1670779;85;20984;-68
2022/09/06 11:27:39;;;;;;;0.90;0.40;;;;;;;18.20;35.13;100992.32;1665975;84;21969;-69
2022/09/06 11:30:10;;;;;;;0.88;0.50;;;;;;;17.98;34.46;100989.66;1663266;85;21445;-70
2022/09/06 11:32:39;;;;;;;0.82;0.50;;;;;;;17.79;35.27;100984.48;1663632;84;21005;-68
2022/09/06 11:35:09;;;;;;;0.95;0.50;;;;;;;17.67;35.24;100992.36;1667818;84;21047;-69
2022/09/06 11:37:42;;;;;;;0.40;0.40;;;;;;;17.58;35.68;100991.44;1666505;85;21407;-68
2022/09/06 11:40:22;;;;;;;2.62;0.40;;;;;;;17.56;35.91;100989.39;1666449;84;22475;-68
2022/09/06 11:42:54;;;;;;;0.72;0.40;;;;;;;17.57;35.98;100977.74;1676164;85;20940;-68
2022/09/06 11:45:39;;;;;;;0.45;0.42;;;;;;;17.61;35.73;100988.45;1666432;86;21096;-70
2022/09/06 11:48:32;;;;;;;0.47;0.40;;;;;;;17.54;35.07;100986.04;1666599;84;21375;-70